Time;durP1;ratioP1;P1;durP2;ratioP2;P2;SDS_P1;SDS_P2;PMS_P1;PMS_P2;Temp;Humidity;BMP_temperature;BMP_pressure;BME280_temperature;BME280_humidity;BME280_pressure;Samples;Min_cycle;Max_cycle;Signal;HPM_P1;HPM_P2
2021/01/14 00:01:33;;;;;;;4.90;4.43;;;19.90;62.60;;;;;;5044731;28;20022;-41
2021/01/14 00:03:59;;;;;;;5.38;4.75;;;19.90;62.40;;;;;;5038652;28;20459;-45
2021/01/14 00:06:25;;;;;;;5.28;4.50;;;19.90;62.60;;;;;;5045204;28;20054;-45
2021/01/14 00:08:50;;;;;;;4.70;4.30;;;19.80;62.70;;;;;;5042867;28;20037;-49
2021/01/14 00:11:16;;;;;;;5.35;4.35;;;19.80;62.90;;;;;;5048196;28;20057;-48
2021/01/14 00:13:41;;;;;;;5.65;4.57;;;19.70;63.00;;;;;;5044022;28;20083;-44
2021/01/14 00:16:07;;;;;;;5.18;4.47;;;19.70;63.20;;;;;;5042597;28;20025;-45
2021/01/14 00:18:32;;;;;;;4.45;4.15;;;19.70;63.40;;;;;;5044157;28;20603;-44
2021/01/14 00:20:58;;;;;;;4.63;4.13;;;19.60;63.40;;;;;;5041671;28;20060;-45
2021/01/14 00:23:24;;;;;;;5.95;3.83;;;19.60;63.40;;;;;;5043804;28;20017;-39
2021/01/14 00:25:50;;;;;;;5.82;4.88;;;19.60;63.50;;;;;;5043432;28;20044;-41
2021/01/14 00:28:15;;;;;;;4.45;4.05;;;19.60;63.60;;;;;;5038569;28;20021;-42
2021/01/14 00:30:41;;;;;;;4.40;4.00;;;19.60;63.60;;;;;;5042954;28;20857;-38
2021/01/14 00:33:06;;;;;;;4.53;4.13;;;19.60;63.70;;;;;;5044821;28;20017;-38
2021/01/14 00:35:32;;;;;;;6.32;4.30;;;19.60;63.80;;;;;;5046521;28;20052;-39
2021/01/14 00:37:57;;;;;;;4.47;4.07;;;19.50;63.70;;;;;;5047929;28;20040;-40
2021/01/14 00:40:27;;;;;;;4.45;4.07;;;19.60;63.70;;;;;;5047788;28;20067;-40
2021/01/14 00:43:12;;;;;;;4.10;3.80;;;19.60;63.80;;;;;;5044970;28;20029;-40
2021/01/14 00:45:38;;;;;;;;;;;19.60;63.80;;;;;;5047409;28;20509;-42
2021/01/14 00:48:04;;;;;;;5.47;3.75;;;19.50;63.70;;;;;;5048361;28;19915;-47
2021/01/14 00:50:29;;;;;;;4.07;3.60;;;19.60;63.80;;;;;;5049805;28;20053;-44
2021/01/14 00:52:55;;;;;;;4.13;3.72;;;19.50;63.70;;;;;;5051199;28;20618;-51
2021/01/14 00:55:21;;;;;;;3.55;3.17;;;19.60;63.70;;;;;;5054304;28;20545;-37
2021/01/14 06:20:12;;;;;;;0.95;0.85;;;18.30;68.00;;;;;;5124090;27;20373;-44
2021/01/14 06:22:38;;;;;;;0.60;0.60;;;18.60;67.30;;;;;;5122989;28;20039;-41
2021/01/14 06:25:05;;;;;;;1.17;0.70;;;18.60;67.10;;;;;;5104815;28;20023;-44
2021/01/14 06:27:31;;;;;;;1.50;1.00;;;18.70;66.80;;;;;;5124260;28;20059;-44
2021/01/14 06:30:02;;;;;;;0.70;0.65;;;18.70;66.80;;;;;;5121777;27;20092;-41
2021/01/14 06:32:28;;;;;;;1.13;1.10;;;18.70;66.10;;;;;;5122396;27;20068;-44
2021/01/14 06:34:53;;;;;;;1.42;1.27;;;18.80;66.40;;;;;;5120778;28;20031;-39
2021/01/14 06:37:23;;;;;;;1.25;1.15;;;18.80;66.40;;;;;;5121089;28;20038;-39
2021/01/14 06:39:55;;;;;;;0.85;0.85;;;18.80;66.30;;;;;;5122710;28;20031;-41
2021/01/14 06:42:26;;;;;;;1.25;1.15;;;18.80;66.30;;;;;;5112022;28;20035;-42
2021/01/14 06:44:59;;;;;;;2.55;1.27;;;18.80;66.30;;;;;;5121810;28;20055;-39
2021/01/14 06:47:41;;;;;;;2.55;1.25;;;18.90;66.50;;;;;;5121563;28;20035;-44
2021/01/14 06:50:17;;;;;;;1.10;1.00;;;18.90;66.70;;;;;;5121018;28;20503;-42
2021/01/14 06:52:43;;;;;;;1.23;1.13;;;18.90;67.00;;;;;;5121266;28;20020;-42
2021/01/14 06:55:22;;;;;;;2.17;1.20;;;18.90;67.10;;;;;;5123106;28;20024;-39
2021/01/14 06:58:06;;;;;;;3.80;1.33;;;19.00;67.70;;;;;;5121894;28;20081;-40
2021/01/14 07:00:38;;;;;;;1.88;1.40;;;19.00;68.20;;;;;;5122068;28;20043;-38
2021/01/14 07:03:14;;;;;;;1.70;1.60;;;19.00;68.20;;;;;;5125306;28;20031;-40
2021/01/14 07:05:51;;;;;;;1.92;1.40;;;19.00;68.50;;;;;;5102304;28;20073;-38
2021/01/14 07:08:38;;;;;;;2.72;2.08;;;19.10;71.20;;;;;;5124126;27;20400;-37
2021/01/14 07:11:18;;;;;;;2.70;1.90;;;19.10;71.30;;;;;;5122085;28;20695;-40
2021/01/14 07:13:50;;;;;;;2.40;1.60;;;19.10;74.10;;;;;;5115479;28;20047;-37
2021/01/14 07:16:20;;;;;;;2.55;1.55;;;19.00;71.70;;;;;;5119853;27;20019;-40
2021/01/14 07:18:46;;;;;;;2.25;1.50;;;19.00;71.30;;;;;;5123753;28;20050;-40
2021/01/14 07:21:35;;;;;;;6.38;1.30;;;19.00;71.20;;;;;;5108505;28;20074;-38
2021/01/14 07:24:19;;;;;;;2.05;1.40;;;19.00;69.30;;;;;;5106253;28;20027;-40
2021/01/14 07:26:55;;;;;;;6.13;1.80;;;19.00;70.00;;;;;;5110568;27;20032;-42
2021/01/14 07:29:20;;;;;;;2.85;1.60;;;19.00;70.70;;;;;;5099513;28;20496;-39
2021/01/14 07:31:47;;;;;;;2.63;1.63;;;19.00;72.30;;;;;;5102982;28;20034;-42
2021/01/14 07:34:38;;;;;;;5.28;1.50;;;19.00;71.80;;;;;;5104014;28;20181;-43
2021/01/14 07:37:04;;;;;;;3.75;1.50;;;18.90;71.40;;;;;;5104373;28;20036;-46
2021/01/14 07:39:48;;;;;;;2.10;1.40;;;19.00;70.90;;;;;;5106355;28;20439;-41
2021/01/14 07:42:21;;;;;;;1.90;1.23;;;19.00;70.20;;;;;;5109604;28;20027;-40
2021/01/14 07:45:02;;;;;;;4.72;1.30;;;19.00;70.70;;;;;;5104375;28;20869;-40
2021/01/14 07:47:32;;;;;;;1.67;1.30;;;18.90;70.20;;;;;;5056870;28;20575;-41
2021/01/14 07:49:58;;;;;;;1.30;1.20;;;18.90;70.00;;;;;;5045571;28;20140;-41
2021/01/14 07:52:34;;;;;;;2.28;1.13;;;19.00;69.20;;;;;;5058411;28;20131;-42
2021/01/14 07:55:07;;;;;;;2.00;1.20;;;19.00;68.80;;;;;;5062176;28;20131;-38
2021/01/14 07:57:44;;;;;;;1.50;1.40;;;19.00;68.90;;;;;;5063633;28;31756;-42
2021/01/14 08:00:20;;;;;;;2.65;1.20;;;19.00;68.70;;;;;;5065578;28;20489;-44
2021/01/14 08:03:04;;;;;;;1.60;1.15;;;19.00;68.40;;;;;;5062825;28;20044;-40
2021/01/14 08:05:56;;;;;;;1.15;0.93;;;18.90;68.10;;;;;;5059913;28;20036;-40
2021/01/14 08:08:31;;;;;;;1.63;1.10;;;18.90;68.20;;;;;;5064462;28;20060;-38
2021/01/14 08:11:19;;;;;;;2.05;0.90;;;18.90;68.20;;;;;;5063999;28;20041;-37
2021/01/14 08:14:12;;;;;;;1.77;1.08;;;19.00;68.30;;;;;;5061773;28;20037;-37
2021/01/14 08:16:56;;;;;;;1.20;0.80;;;18.90;67.80;;;;;;5063125;28;20059;-40
2021/01/14 08:19:34;;;;;;;1.67;0.88;;;18.90;67.80;;;;;;5066664;28;20055;-41
2021/01/14 08:22:05;;;;;;;0.98;0.90;;;18.90;67.80;;;;;;5053106;28;20405;-43
2021/01/14 08:24:41;;;;;;;0.77;0.73;;;18.90;67.60;;;;;;5059505;28;20099;-43
2021/01/14 08:27:13;;;;;;;0.70;0.70;;;19.00;67.50;;;;;;5064926;28;20505;-43
2021/01/14 08:29:43;;;;;;;2.05;0.70;;;18.90;67.40;;;;;;5062682;28;20051;-45
2021/01/14 08:32:34;;;;;;;0.75;0.75;;;19.00;67.50;;;;;;5060816;28;20037;-42
2021/01/14 08:35:06;;;;;;;0.70;0.70;;;19.00;67.60;;;;;;5063735;28;20044;-42
2021/01/14 08:37:51;;;;;;;1.85;0.82;;;19.00;67.10;;;;;;5060730;28;20425;-42
2021/01/14 08:40:22;;;;;;;1.20;0.75;;;19.10;67.00;;;;;;5060427;28;20037;-45
2021/01/14 08:42:58;;;;;;;0.73;0.55;;;19.10;66.90;;;;;;5065040;28;20130;-40
2021/01/14 08:45:27;;;;;;;3.42;0.80;;;19.00;66.90;;;;;;5048823;28;20047;-40
2021/01/14 08:47:56;;;;;;;0.70;0.57;;;19.00;67.10;;;;;;5061303;28;20677;-42
2021/01/14 08:50:46;;;;;;;0.77;0.60;;;19.10;67.10;;;;;;5062479;28;20078;-43
2021/01/14 08:53:18;;;;;;;1.00;0.45;;;19.10;67.10;;;;;;5060092;28;20047;-37
2021/01/14 08:55:43;;;;;;;0.88;0.70;;;19.10;67.50;;;;;;5056991;28;20049;-42
2021/01/14 08:58:09;;;;;;;0.93;0.60;;;19.10;67.30;;;;;;5060489;28;20510;-42
2021/01/14 09:00:36;;;;;;;0.65;0.60;;;19.10;66.70;;;;;;5028292;28;20498;-44
2021/01/14 09:03:02;;;;;;;1.92;0.73;;;19.10;66.70;;;;;;5048255;28;20079;-46
2021/01/14 09:05:28;;;;;;;1.35;0.70;;;19.10;66.80;;;;;;5064826;28;20462;-44
2021/01/14 09:08:08;;;;;;;0.60;0.57;;;19.00;66.60;;;;;;5063834;28;20048;-44
2021/01/14 09:10:59;;;;;;;1.00;0.60;;;19.10;66.60;;;;;;5059318;28;20048;-41
2021/01/14 09:13:26;;;;;;;1.45;0.57;;;19.10;66.50;;;;;;5042422;28;20115;-44
2021/01/14 09:15:53;;;;;;;0.68;0.43;;;19.10;66.40;;;;;;5046301;28;20044;-46
2021/01/14 09:18:32;;;;;;;1.27;0.60;;;19.00;66.40;;;;;;5062714;28;20576;-43
2021/01/14 09:20:58;;;;;;;1.38;0.90;;;19.10;66.50;;;;;;5062555;28;20087;-40
2021/01/14 09:23:32;;;;;;;0.93;0.63;;;19.10;66.60;;;;;;5069289;28;20089;-42
2021/01/14 09:25:58;;;;;;;0.60;0.60;;;19.20;66.50;;;;;;5063797;28;20075;-43
2021/01/14 09:28:25;;;;;;;1.00;0.45;;;19.10;65.80;;;;;;5067674;28;20068;-41
2021/01/14 09:31:01;;;;;;;0.50;0.30;;;19.10;66.10;;;;;;5068346;28;20484;-41
2021/01/14 09:33:29;;;;;;;0.82;0.40;;;19.20;66.20;;;;;;5064161;28;20043;-43
2021/01/14 09:36:02;;;;;;;0.55;0.50;;;19.20;65.50;;;;;;5068366;28;20063;-44
2021/01/14 09:38:28;;;;;;;0.50;0.50;;;19.10;65.80;;;;;;5066792;28;20051;-46
2021/01/14 09:40:54;;;;;;;3.42;0.40;;;19.10;65.90;;;;;;5066354;28;20079;-44
2021/01/14 09:43:24;;;;;;;1.05;0.52;;;19.10;66.00;;;;;;5064508;28;20093;-43
2021/01/14 09:45:50;;;;;;;1.95;0.70;;;19.10;66.00;;;;;;5063264;28;20044;-42
2021/01/14 09:48:19;;;;;;;0.50;0.50;;;19.10;65.80;;;;;;5066619;28;20053;-44
2021/01/14 09:50:44;;;;;;;0.57;0.32;;;19.20;65.60;;;;;;5071079;28;20045;-39
2021/01/14 09:53:10;;;;;;;0.40;0.30;;;19.20;65.40;;;;;;5066988;28;20047;-41
2021/01/14 09:55:35;;;;;;;0.93;0.47;;;19.20;65.30;;;;;;5069862;28;20048;-46
2021/01/14 09:58:01;;;;;;;0.30;0.30;;;19.20;65.90;;;;;;5073716;28;20067;-38
2021/01/14 10:00:27;;;;;;;0.85;0.60;;;19.20;65.30;;;;;;5044609;28;20055;-40
2021/01/14 10:03:02;;;;;;;0.77;0.32;;;19.20;65.30;;;;;;5052830;28;20059;-43
2021/01/14 10:05:28;;;;;;;0.55;0.55;;;19.20;65.30;;;;;;5038958;28;20044;-42
2021/01/14 10:07:54;;;;;;;1.20;0.50;;;19.20;65.30;;;;;;5064485;28;20049;-42
2021/01/14 10:10:20;;;;;;;1.95;0.20;;;19.20;65.30;;;;;;5048610;28;20094;-42
2021/01/14 10:12:53;;;;;;;0.75;0.45;;;19.20;65.30;;;;;;5074288;28;20788;-46
2021/01/14 10:15:19;;;;;;;0.43;0.30;;;19.20;65.30;;;;;;5066199;28;20516;-43
2021/01/14 10:17:45;;;;;;;0.50;0.40;;;19.20;65.20;;;;;;5046776;28;20048;-49
2021/01/14 10:20:15;;;;;;;0.40;0.40;;;19.20;65.00;;;;;;5062921;28;20044;-42
2021/01/14 10:22:47;;;;;;;0.55;0.52;;;19.20;65.20;;;;;;5067954;28;20052;-45
2021/01/14 10:25:13;;;;;;;0.63;0.30;;;19.20;65.10;;;;;;5067837;28;20048;-45
2021/01/14 10:27:39;;;;;;;0.45;0.45;;;19.20;64.90;;;;;;5065941;28;20127;-43
2021/01/14 10:30:22;;;;;;;0.85;0.63;;;19.20;65.20;;;;;;5067968;28;20463;-43
2021/01/14 10:32:47;;;;;;;0.50;0.30;;;19.30;64.80;;;;;;5076373;28;20126;-43
2021/01/14 10:35:23;;;;;;;0.55;0.30;;;19.30;64.60;;;;;;5064618;28;20513;-43
2021/01/14 10:37:59;;;;;;;0.43;0.32;;;19.30;64.60;;;;;;5063565;28;20094;-43
2021/01/14 10:40:26;;;;;;;0.32;0.20;;;19.30;64.60;;;;;;5062979;28;20052;-45
2021/01/14 10:42:52;;;;;;;0.30;0.25;;;19.30;64.60;;;;;;5063456;28;20517;-40
2021/01/14 10:45:24;;;;;;;0.20;0.20;;;19.30;64.60;;;;;;5071812;28;20083;-38
2021/01/14 10:47:50;;;;;;;0.40;0.20;;;19.30;65.10;;;;;;5063270;28;20033;-37
2021/01/14 10:50:25;;;;;;;2.00;0.28;;;19.30;65.20;;;;;;5069650;28;20097;-41
2021/01/14 10:52:58;;;;;;;0.50;0.30;;;19.30;64.40;;;;;;5075108;28;20044;-39
2021/01/14 10:55:24;;;;;;;1.67;0.40;;;19.30;64.90;;;;;;5068019;28;20048;-40
2021/01/14 10:57:51;;;;;;;0.68;0.32;;;19.40;64.90;;;;;;5072149;28;20571;-37
2021/01/14 11:00:18;;;;;;;1.45;0.45;;;19.40;64.60;;;;;;5068247;28;20040;-39
2021/01/14 11:02:45;;;;;;;1.95;0.20;;;19.40;64.40;;;;;;5073465;28;20506;-40
2021/01/14 11:05:11;;;;;;;0.35;0.20;;;19.40;64.80;;;;;;5069536;28;20142;-41
2021/01/14 11:07:37;;;;;;;0.32;0.30;;;19.40;64.90;;;;;;5067084;28;20041;-40
2021/01/14 11:10:06;;;;;;;3.25;0.40;;;19.40;65.00;;;;;;5079666;28;20056;-43
2021/01/14 11:12:32;;;;;;;1.52;0.40;;;19.40;65.90;;;;;;5071732;28;20059;-39
2021/01/14 11:14:58;;;;;;;1.45;0.32;;;19.40;64.80;;;;;;4721300;28;10000266;-38
2021/01/14 11:17:24;;;;;;;1.85;0.38;;;19.40;65.00;;;;;;5061474;28;20061;-39
2021/01/14 11:19:51;;;;;;;0.38;0.38;;;19.40;65.00;;;;;;5061553;28;20124;-46
2021/01/14 11:22:16;;;;;;;1.92;0.35;;;19.40;65.00;;;;;;5066088;28;20596;-52
2021/01/14 11:24:42;;;;;;;0.30;0.30;;;19.40;65.10;;;;;;5064506;28;20123;-49
2021/01/14 11:27:07;;;;;;;5.55;5.07;;;19.40;64.40;;;;;;5068047;28;20050;-45
2021/01/14 11:29:33;;;;;;;1.15;0.90;;;19.40;64.90;;;;;;5068242;28;20658;-46
2021/01/14 11:32:00;;;;;;;2.97;2.75;;;19.40;64.00;;;;;;5074860;28;20048;-44
2021/01/14 11:34:26;;;;;;;0.98;0.77;;;19.40;64.70;;;;;;5073019;28;20096;-46
2021/01/14 11:36:51;;;;;;;1.48;1.30;;;19.50;63.70;;;;;;5059144;28;20410;-38
2021/01/14 11:39:17;;;;;;;1.70;1.60;;;19.60;64.50;;;;;;5071044;28;20098;-40
2021/01/14 11:41:43;;;;;;;1.60;1.50;;;19.60;64.30;;;;;;5073406;28;20048;-44
2021/01/14 11:44:08;;;;;;;2.30;2.20;;;19.60;65.00;;;;;;5066062;28;20115;-31
2021/01/14 11:46:34;;;;;;;3.22;2.70;;;19.60;64.70;;;;;;5069421;28;20058;-44
2021/01/14 11:48:59;;;;;;;8.93;5.88;;;19.60;65.70;;;;;;5062386;28;20056;-44
2021/01/14 11:51:25;;;;;;;11.00;7.65;;;19.60;65.30;;;;;;5072975;28;20042;-42
2021/01/14 11:53:50;;;;;;;9.32;8.32;;;19.60;66.40;;;;;;5073679;28;20075;-45
2021/01/14 11:56:16;;;;;;;10.70;9.18;;;19.50;66.40;;;;;;5069422;28;20045;-46
2021/01/14 11:58:42;;;;;;;8.93;7.45;;;19.60;66.80;;;;;;5059091;28;20094;-41
2021/01/14 12:01:07;;;;;;;10.82;9.52;;;19.50;66.00;;;;;;5062658;28;20169;-45
2021/01/14 12:03:34;;;;;;;12.38;9.85;;;19.50;66.50;;;;;;5062264;28;21219;-46
2021/01/14 12:06:00;;;;;;;16.10;12.60;;;19.50;66.20;;;;;;5062076;28;20059;-43
2021/01/14 12:08:26;;;;;;;15.23;11.63;;;19.50;66.80;;;;;;5071514;28;20392;-43
2021/01/14 12:10:51;;;;;;;14.02;10.98;;;19.50;66.60;;;;;;5064766;28;20024;-44
2021/01/14 12:13:17;;;;;;;14.45;11.52;;;19.50;67.00;;;;;;5065734;28;20515;-46
2021/01/14 12:15:43;;;;;;;13.02;8.57;;;19.40;66.70;;;;;;5063219;28;20047;-49
2021/01/14 12:18:09;;;;;;;12.65;10.18;;;19.50;66.10;;;;;;5048468;28;20112;-48
2021/01/14 12:20:34;;;;;;;15.50;9.98;;;19.50;66.60;;;;;;5060023;28;20063;-40
2021/01/14 12:23:00;;;;;;;10.13;8.70;;;19.50;66.70;;;;;;5062546;28;20421;-42
2021/01/14 12:25:25;;;;;;;13.98;8.68;;;19.50;66.20;;;;;;5067802;28;20049;-43
2021/01/14 12:27:52;;;;;;;13.60;9.27;;;19.60;65.70;;;;;;5058865;28;20131;-44
2021/01/14 12:30:18;;;;;;;10.80;9.10;;;19.60;66.10;;;;;;5040943;28;20053;-44
2021/01/14 12:32:44;;;;;;;10.23;8.60;;;19.60;66.20;;;;;;5043354;28;20066;-44
2021/01/14 12:35:10;;;;;;;9.13;7.57;;;19.60;66.20;;;;;;5054570;28;20505;-45
2021/01/14 12:37:37;;;;;;;11.73;8.05;;;19.60;66.00;;;;;;5067925;28;20033;-48
2021/01/14 12:40:04;;;;;;;9.88;7.85;;;19.50;66.30;;;;;;5065934;28;20504;-45
2021/01/14 12:42:29;;;;;;;11.13;7.68;;;19.50;66.10;;;;;;5059952;28;20094;-44
2021/01/14 12:44:55;;;;;;;11.32;7.88;;;19.50;66.30;;;;;;5060425;28;20040;-43
2021/01/14 12:47:21;;;;;;;8.35;7.45;;;19.50;65.70;;;;;;5056481;28;20066;-40
2021/01/14 12:49:46;;;;;;;8.82;7.53;;;19.40;66.10;;;;;;5060193;28;20417;-44
2021/01/14 12:52:12;;;;;;;7.63;6.82;;;19.40;65.90;;;;;;5051475;28;20036;-42
2021/01/14 12:54:37;;;;;;;8.82;7.13;;;19.40;66.00;;;;;;5063091;28;20048;-44
2021/01/14 12:57:03;;;;;;;7.13;6.43;;;19.40;65.50;;;;;;5070023;28;20044;-42
2021/01/14 12:59:29;;;;;;;7.32;6.65;;;19.40;66.10;;;;;;5066473;28;20071;-39
2021/01/14 13:01:54;;;;;;;7.93;7.13;;;19.40;65.50;;;;;;5065200;28;20062;-41
2021/01/14 13:04:20;;;;;;;7.53;6.82;;;19.40;65.80;;;;;;5065537;28;20056;-40
2021/01/14 13:06:45;;;;;;;8.90;6.93;;;19.50;65.50;;;;;;5067952;28;20048;-41
2021/01/14 13:09:11;;;;;;;6.82;6.13;;;19.50;65.40;;;;;;5068270;28;20059;-41
2021/01/14 13:11:41;;;;;;;7.22;6.47;;;19.50;65.40;;;;;;5058437;28;20391;-41
2021/01/14 13:14:07;;;;;;;6.32;5.65;;;19.50;65.00;;;;;;5060043;28;20041;-42
2021/01/14 13:16:42;;;;;;;7.15;6.47;;;19.40;65.00;;;;;;5059210;28;20117;-40
2021/01/14 13:19:09;;;;;;;6.85;6.15;;;19.50;65.10;;;;;;5065503;28;20131;-44
2021/01/14 13:21:36;;;;;;;7.20;6.53;;;19.40;64.80;;;;;;5068872;28;20147;-45
2021/01/14 13:24:03;;;;;;;6.50;5.93;;;19.40;65.60;;;;;;5061076;28;20144;-39
2021/01/14 13:26:30;;;;;;;6.20;5.25;;;19.50;66.10;;;;;;5049658;28;20049;-47
2021/01/14 13:28:55;;;;;;;5.38;4.88;;;19.50;65.20;;;;;;5064837;28;20536;-43
2021/01/14 13:31:21;;;;;;;5.22;4.80;;;19.50;65.00;;;;;;5062135;28;20044;-41
2021/01/14 13:33:46;;;;;;;4.72;4.32;;;19.50;65.10;;;;;;5070606;28;20064;-46
2021/01/14 13:36:12;;;;;;;4.97;4.57;;;19.40;65.10;;;;;;5066645;28;20121;-41
2021/01/14 13:38:37;;;;;;;4.72;4.30;;;19.40;65.50;;;;;;5060146;28;20461;-45
2021/01/14 13:41:03;;;;;;;4.82;4.43;;;19.30;65.00;;;;;;5069940;28;20049;-40
2021/01/14 13:43:29;;;;;;;5.05;4.65;;;19.30;64.90;;;;;;5070680;28;20045;-42
2021/01/14 13:45:58;;;;;;;5.00;4.60;;;19.30;64.90;;;;;;5066918;28;20051;-43
2021/01/14 13:48:24;;;;;;;4.32;4.03;;;19.30;65.80;;;;;;5066006;28;20249;-42
2021/01/14 13:50:50;;;;;;;4.88;3.58;;;19.30;65.20;;;;;;5062441;28;20481;-45
2021/01/14 13:53:15;;;;;;;3.97;3.67;;;19.30;65.10;;;;;;5064731;28;20043;-42
2021/01/14 13:55:44;;;;;;;4.60;4.28;;;19.30;65.00;;;;;;5074009;28;20098;-42
2021/01/14 13:58:11;;;;;;;4.50;4.10;;;19.30;65.10;;;;;;5077674;28;20044;-40
2021/01/14 14:00:42;;;;;;;4.30;3.90;;;19.30;65.00;;;;;;5066703;28;20496;-39
2021/01/14 14:03:08;;;;;;;4.47;4.10;;;19.30;64.80;;;;;;5064462;28;20124;-39
2021/01/14 14:05:33;;;;;;;4.15;3.80;;;19.30;64.80;;;;;;5073266;28;20146;-40
2021/01/14 14:07:59;;;;;;;4.35;3.97;;;19.30;65.40;;;;;;5067239;28;20455;-41
2021/01/14 14:10:24;;;;;;;4.47;4.07;;;19.40;64.60;;;;;;5078628;28;20072;-40
2021/01/14 14:12:50;;;;;;;4.28;3.90;;;19.40;64.80;;;;;;5068036;28;20036;-40
2021/01/14 14:15:15;;;;;;;4.32;3.92;;;19.30;64.80;;;;;;5070600;28;20131;-47
2021/01/14 14:17:41;;;;;;;3.97;3.67;;;19.30;65.20;;;;;;5076786;28;20615;-39
2021/01/14 14:20:07;;;;;;;5.88;3.50;;;19.30;64.90;;;;;;5067170;28;20051;-42
2021/01/14 14:22:33;;;;;;;4.72;3.65;;;19.30;64.90;;;;;;5066606;28;20052;-40
2021/01/14 14:24:59;;;;;;;3.88;3.58;;;19.30;64.90;;;;;;5070162;28;20127;-44
2021/01/14 14:27:25;;;;;;;3.58;3.28;;;19.40;64.70;;;;;;5072912;28;20799;-44
2021/01/14 14:29:50;;;;;;;3.35;3.13;;;19.30;64.70;;;;;;5069549;28;20049;-42
2021/01/14 14:32:16;;;;;;;3.65;3.40;;;19.30;64.70;;;;;;5081916;28;20536;-39
2021/01/14 14:34:41;;;;;;;3.13;2.92;;;19.30;64.80;;;;;;5077161;28;20048;-42
2021/01/14 14:37:07;;;;;;;4.97;3.83;;;19.30;64.80;;;;;;5075854;28;20067;-42
2021/01/14 14:39:39;;;;;;;3.72;3.42;;;19.30;64.80;;;;;;5074616;28;20059;-42
2021/01/14 14:42:06;;;;;;;3.22;2.92;;;19.30;64.80;;;;;;5081638;28;20094;-38
2021/01/14 14:44:31;;;;;;;4.60;2.92;;;19.30;64.70;;;;;;5067350;28;20063;-38
2021/01/14 14:46:57;;;;;;;3.40;3.20;;;19.30;64.70;;;;;;5072927;28;20578;-41
2021/01/14 14:49:22;;;;;;;3.38;3.17;;;19.30;64.70;;;;;;5078359;28;20459;-42
2021/01/14 14:51:48;;;;;;;4.00;3.15;;;19.40;64.70;;;;;;5076533;28;20068;-40
2021/01/14 14:54:14;;;;;;;2.90;2.70;;;19.40;64.60;;;;;;5073564;28;20127;-39
2021/01/14 14:56:39;;;;;;;3.05;2.85;;;19.30;64.50;;;;;;5074817;28;20041;-42
2021/01/14 14:59:05;;;;;;;3.13;2.85;;;19.40;64.60;;;;;;5070046;28;20133;-42
2021/01/14 15:01:30;;;;;;;2.80;2.60;;;19.40;64.30;;;;;;5065483;28;20037;-41
2021/01/14 15:03:56;;;;;;;5.43;3.05;;;19.40;65.40;;;;;;5075767;28;20444;-42
2021/01/14 15:06:21;;;;;;;2.88;2.60;;;19.40;64.50;;;;;;5073786;28;20114;-40
2021/01/14 15:08:47;;;;;;;2.30;2.13;;;19.40;64.70;;;;;;5069348;28;20060;-43
2021/01/14 15:11:19;;;;;;;2.63;2.42;;;19.50;64.40;;;;;;5072583;28;20509;-41
2021/01/14 15:13:45;;;;;;;2.78;2.58;;;19.50;64.00;;;;;;5070084;28;20044;-41
2021/01/14 15:16:10;;;;;;;2.97;2.78;;;19.40;64.70;;;;;;5076859;28;20421;-38
2021/01/14 15:18:43;;;;;;;2.40;2.20;;;19.40;64.20;;;;;;5072075;28;20472;-42
2021/01/14 15:21:11;;;;;;;2.72;2.25;;;19.40;64.30;;;;;;5073343;28;20056;-42
2021/01/14 15:23:37;;;;;;;2.28;2.17;;;19.30;64.30;;;;;;5071468;28;20079;-44
2021/01/14 15:26:03;;;;;;;2.47;2.28;;;19.30;64.20;;;;;;5081252;28;20072;-44
2021/01/14 15:28:29;;;;;;;2.47;2.30;;;19.30;64.10;;;;;;5071636;28;20047;-49
2021/01/14 15:30:54;;;;;;;3.25;2.20;;;19.30;64.10;;;;;;5074268;28;20358;-47
2021/01/14 15:33:20;;;;;;;2.22;2.03;;;19.30;64.20;;;;;;5071321;28;20046;-43
2021/01/14 15:35:46;;;;;;;2.28;2.10;;;19.30;64.10;;;;;;5081577;28;20036;-42
2021/01/14 15:38:11;;;;;;;3.47;2.13;;;19.30;64.10;;;;;;5077433;28;20484;-57
2021/01/14 15:40:37;;;;;;;2.40;2.10;;;19.40;64.40;;;;;;5072302;28;20055;-45
2021/01/14 15:43:03;;;;;;;1.98;1.85;;;19.40;64.10;;;;;;5074992;28;20078;-43
2021/01/14 15:45:29;;;;;;;2.15;2.05;;;19.40;63.70;;;;;;5079720;28;20043;-41
2021/01/14 15:47:55;;;;;;;3.45;1.83;;;19.50;63.70;;;;;;5070910;28;20110;-40
2021/01/14 15:50:20;;;;;;;2.17;1.95;;;19.40;64.00;;;;;;5074699;28;20048;-42
2021/01/14 15:52:47;;;;;;;2.40;2.20;;;19.40;63.80;;;;;;5070692;28;20049;-49
2021/01/14 15:55:13;;;;;;;2.28;2.10;;;19.40;63.80;;;;;;5076415;28;20052;-52
2021/01/14 15:57:39;;;;;;;1.77;1.67;;;19.40;64.00;;;;;;5070075;28;20082;-36
2021/01/14 16:00:05;;;;;;;2.20;2.08;;;19.40;64.40;;;;;;5073487;28;20140;-44
2021/01/14 16:02:30;;;;;;;2.50;2.38;;;19.40;63.90;;;;;;5070648;28;20150;-44
2021/01/14 16:04:59;;;;;;;3.60;2.05;;;19.40;63.80;;;;;;5073673;28;20115;-42
2021/01/14 16:07:24;;;;;;;2.80;2.60;;;19.30;63.80;;;;;;5074296;28;20039;-44
2021/01/14 16:09:50;;;;;;;3.03;2.83;;;19.30;64.00;;;;;;5074064;28;20057;-41
2021/01/14 16:12:16;;;;;;;4.13;3.72;;;19.30;65.10;;;;;;5074210;28;20047;-37
2021/01/14 16:14:42;;;;;;;14.43;7.90;;;19.30;64.00;;;;;;5066563;28;20044;-40
2021/01/14 16:17:11;;;;;;;9.05;6.82;;;19.30;64.00;;;;;;5068551;28;20579;-41
2021/01/14 16:19:37;;;;;;;12.90;7.60;;;19.40;63.90;;;;;;5069215;28;20052;-41
2021/01/14 16:22:03;;;;;;;15.70;8.60;;;19.40;63.70;;;;;;5075855;28;20036;-40
2021/01/14 16:24:29;;;;;;;12.80;7.97;;;19.30;63.90;;;;;;5066705;28;20028;-37
2021/01/14 16:26:54;;;;;;;13.80;8.02;;;19.30;63.90;;;;;;5083448;28;20036;-40
2021/01/14 16:29:22;;;;;;;14.23;9.07;;;19.30;64.00;;;;;;5072203;28;20517;-40
2021/01/14 16:31:52;;;;;;;16.27;9.25;;;19.30;63.90;;;;;;5064499;28;20052;-42
2021/01/14 16:34:18;;;;;;;18.20;10.27;;;19.30;63.90;;;;;;5073590;28;20043;-46
2021/01/14 16:36:44;;;;;;;25.38;13.18;;;19.30;63.90;;;;;;5076234;28;20047;-46
2021/01/14 16:39:11;;;;;;;17.50;10.23;;;19.40;63.90;;;;;;5077640;28;20040;-35
2021/01/14 16:41:37;;;;;;;17.50;10.90;;;19.40;63.50;;;;;;5066871;28;21452;-43
2021/01/14 16:44:02;;;;;;;18.05;11.88;;;19.40;63.60;;;;;;5069643;28;20035;-49
2021/01/14 16:46:29;;;;;;;17.27;10.85;;;19.40;63.60;;;;;;5072416;28;20093;-44
2021/01/14 16:48:56;;;;;;;19.80;10.73;;;19.40;63.70;;;;;;5079967;28;20051;-41
2021/01/14 16:51:22;;;;;;;19.92;11.35;;;19.40;63.70;;;;;;5082764;28;20051;-48
2021/01/14 16:53:51;;;;;;;19.90;12.48;;;19.40;63.70;;;;;;5071540;28;20051;-44
2021/01/14 16:56:17;;;;;;;20.92;11.60;;;19.40;63.80;;;;;;5070361;28;20064;-49
2021/01/14 16:58:44;;;;;;;19.48;12.35;;;19.40;63.60;;;;;;5068287;28;20224;-44
2021/01/14 17:01:11;;;;;;;19.20;11.70;;;19.40;63.70;;;;;;5066065;28;20048;-46
2021/01/14 17:03:38;;;;;;;21.27;11.30;;;19.40;63.10;;;;;;5066795;28;20041;-42
2021/01/14 17:06:05;;;;;;;19.70;12.68;;;19.50;63.20;;;;;;4712087;28;10000412;-49
2021/01/14 17:08:30;;;;;;;18.20;12.68;;;19.40;63.40;;;;;;5060592;28;20108;-47
2021/01/14 17:10:56;;;;;;;21.05;12.50;;;19.40;63.20;;;;;;5059926;28;20048;-47
2021/01/14 17:13:21;;;;;;;18.30;11.75;;;19.40;63.30;;;;;;5064117;28;20127;-41
2021/01/14 17:15:47;;;;;;;19.88;12.20;;;19.40;63.30;;;;;;5067049;28;20048;-47
2021/01/14 17:18:12;;;;;;;20.80;12.48;;;19.40;63.40;;;;;;5063367;28;20630;-39
2021/01/14 17:20:38;;;;;;;17.33;11.05;;;19.40;63.50;;;;;;5065021;28;20043;-44
2021/01/14 17:23:03;;;;;;;16.13;11.45;;;19.50;63.20;;;;;;5073722;28;20060;-45
2021/01/14 17:25:29;;;;;;;21.73;13.02;;;19.50;64.10;;;;;;5059307;28;20517;-45
2021/01/14 17:27:54;;;;;;;24.85;12.70;;;19.40;63.20;;;;;;5059939;28;20100;-41
2021/01/14 17:30:21;;;;;;;21.98;12.93;;;19.40;63.40;;;;;;5053117;28;20107;-31
2021/01/14 17:32:47;;;;;;;20.17;12.15;;;19.40;63.50;;;;;;5059419;28;20044;-46
2021/01/14 17:35:12;;;;;;;19.35;11.50;;;19.30;63.50;;;;;;5063908;28;20754;-45
2021/01/14 17:37:38;;;;;;;17.27;10.77;;;19.30;63.50;;;;;;5058496;28;20836;-41
2021/01/14 17:40:06;;;;;;;14.75;10.05;;;19.30;63.70;;;;;;5068038;28;20135;-51
2021/01/14 17:42:31;;;;;;;18.48;10.65;;;19.30;63.70;;;;;;5060810;28;20055;-39
2021/01/14 17:44:57;;;;;;;15.75;9.88;;;19.40;63.40;;;;;;5059383;28;20036;-49
2021/01/14 17:47:23;;;;;;;15.27;9.90;;;19.40;63.30;;;;;;5069764;28;20518;-47
2021/01/14 17:49:49;;;;;;;14.88;9.52;;;19.40;63.60;;;;;;5060938;28;20167;-51
2021/01/14 17:52:18;;;;;;;15.85;9.88;;;19.40;63.40;;;;;;5065219;28;20202;-41
2021/01/14 17:54:43;;;;;;;13.13;9.52;;;19.50;63.40;;;;;;5063153;28;20056;-42
2021/01/14 17:57:09;;;;;;;15.70;9.38;;;19.40;63.40;;;;;;5069146;28;20044;-40
2021/01/14 17:59:35;;;;;;;16.58;9.27;;;19.40;63.50;;;;;;5065006;28;20056;-36
2021/01/14 18:02:01;;;;;;;15.32;9.15;;;19.50;63.10;;;;;;5059780;28;20117;-45
2021/01/14 18:04:27;;;;;;;15.18;8.73;;;19.50;63.40;;;;;;5054245;28;20041;-46
2021/01/14 18:06:52;;;;;;;14.65;8.25;;;19.60;63.30;;;;;;5057138;28;20068;-48
2021/01/14 18:09:18;;;;;;;16.13;8.88;;;19.60;63.30;;;;;;5065713;28;20441;-45
2021/01/14 18:11:43;;;;;;;13.50;8.77;;;19.60;63.00;;;;;;5065658;28;20097;-51